Latest Coastal Weather Observations for Red Rocks Point

IDW60701

Issued at 11:55 pm WST Friday 25 July 2014 (issued every 10 minutes, with the page automatically refreshed every 10 minutes)

About coastal observations | Map of coastal stations | Coastal observations for WA | Marine services | Other Formats
Station Details ID: 011053 Name: RED ROCKS POINT Lat: -32.20 Lon: 127.53 Height: 3.1 m
Data from the previous 72 hours. | See also: Recent months for locations in Western Australia
Date/Time
WST
Temp

°C
Wind Pressure Rain
since 9am
mm
Weather Cloud Vis
km
Sea
Height
m
Swell
Dir
 
Speed
knots
Gust
knots
hPa Trend Height
m
Period
s
Dir
25/11:30pm 7.3 N 7 8 1023.9 - 0.0 - - - - - - -
25/11:00pm 8.3 N 7 8 1024.1 - 0.0 - - - - - - -
25/10:30pm 8.9 N 7 9 1024.3 - 0.0 - - - - - - -
25/10:00pm 9.0 N 7 9 1024.3 - 0.0 - - - - - - -
25/09:30pm 9.0 N 7 8 1024.3 - 0.0 - - - - - - -
25/09:00pm 9.3 N 7 9 1024.3 - 0.0 - - - - - - -
25/08:30pm 9.5 N 7 8 1024.3 - 0.0 - - - - - - -
25/08:00pm 9.9 N 7 9 1023.9 - 0.0 - - - - - - -
25/07:30pm 9.9 NNE 6 7 1023.7 - 0.0 - - - - - - -
25/07:00pm 9.9 CALM 0 0 1023.3 - 0.0 - - - - - - -
25/06:30pm 9.6 CALM 0 0 1023.1 - 0.0 - - - - - - -
25/06:00pm 10.0 CALM 0 0 1023.0 - 0.0 - - - - - - -
25/05:30pm 10.6 CALM 0 0 1022.7 - 0.0 - - - - - - -
25/05:00pm 11.3 CALM 0 0 1022.5 - 0.0 - - - - - - -
25/04:30pm 13.4 SSW 4 5 1022.4 - 0.0 - - - - - - -
25/04:00pm 14.2 SSW 6 7 1022.3 - 0.0 - - - - - - -
25/03:30pm 15.2 S 6 7 1022.0 - 0.0 - - - - - - -
25/03:00pm 14.6 SSW 6 8 1022.1 - 0.0 - - - - - - -
25/02:30pm 15.0 SSW 6 8 1022.0 - 0.0 - - - - - - -
25/02:00pm 15.4 SW 7 10 1021.9 - 0.0 - - - - - - -
25/01:30pm 16.2 SSW 9 11 1021.9 - 0.0 - - - - - - -
25/01:00pm 16.2 SW 8 10 1022.1 - 0.0 - - - - - - -
25/12:30pm 16.3 SSW 9 11 1022.0 - 0.0 - - - - - - -
25/12:00pm 16.2 SW 8 11 1022.2 - 0.0 - - - - - - -
25/11:30am 16.0 SW 9 11 1022.5 - 0.0 - - - - - - -
25/11:00am 16.2 WSW 8 11 1022.9 - 0.0 - - - - - - -
25/10:30am 15.5 WSW 8 10 1023.2 - 0.0 - - - - - - -
25/10:00am 14.5 WSW 7 11 1023.3 - 0.0 - - - - - - -
25/09:30am 14.0 NW 6 8 1023.3 - 0.0 - - - - - - -
25/09:00am 13.1 NW 6 8 1023.1 - 4.2 - - - - - - -
25/08:30am 11.3 NW 7 10 1023.0 - 4.2 - - - - - - -
25/08:00am 10.0 NW 8 11 1022.7 - 4.2 - - - - - - -
25/07:30am 8.5 NW 9 11 1022.2 - 4.2 - - - - - - -
25/07:00am 8.1 NW 8 11 1021.7 - 4.2 - - - - - - -
25/06:30am 7.7 NW 8 11 1021.4 - 4.2 - - - - - - -
25/06:00am 8.1 NW 9 11 1020.9 - 4.0 - - - - - - -
25/05:30am 8.2 NW 8 11 1020.7 - 4.0 - - - - - - -
25/05:00am 8.1 NW 9 12 1020.3 - 4.0 - - - - - - -
25/04:30am 7.8 NW 9 11 1019.9 - 4.0 - - - - - - -
25/04:00am 8.1 NW 8 11 1019.8 - 4.0 - - - - - - -
25/03:30am 8.1 NW 9 11 1019.5 - 3.8 - - - - - - -
25/03:00am 8.3 NW 8 10 1019.3 - 3.8 - - - - - - -
25/02:30am 8.2 NW 8 11 1019.1 - 3.8 - - - - - - -
25/02:00am 8.7 NW 7 10 1019.0 - 3.8 - - - - - - -
25/01:30am 8.5 NW 8 10 1018.9 - 3.8 - - - - - - -
 
Date/Time
WST
Temp

°C
Wind Pressure Rain
since 9am
mm
Weather Cloud Vis
km
Sea
Height
m
Swell
Dir
 
Speed
knots
Gust
knots
hPa Trend Height
m
Period
s
Dir
24/10:00pm 9.5 NW 7 10 1018.7 - 3.6 - - - - - - -
24/09:30pm 9.7 NW 7 9 1018.5 - 3.6 - - - - - - -
24/09:00pm 9.9 NW 7 10 1018.4 - 3.6 - - - - - - -
24/08:30pm 10.2 NW 7 9 1018.2 - 3.6 - - - - - - -
24/08:00pm 10.3 NW 5 7 1018.0 - 3.6 - - - - - - -
24/07:30pm 10.3 NW 6 8 1017.7 - 3.6 - - - - - - -
24/07:00pm 11.0 NW 6 7 1017.4 - 3.6 - - - - - - -
24/06:30pm 11.7 WNW 7 23 1017.1 - 3.4 - - - - - - -
24/06:00pm 11.7 W 7 13 1017.0 - 3.2 - - - - - - -
24/05:30pm 11.4 WSW 9 13 1016.5 - 3.0 - - - - - - -
24/05:00pm 11.6 WSW 14 18 1016.6 - 1.4 - - - - - - -
24/04:30pm 13.2 SW 13 23 1015.8 - 0.0 - - - - - - -
24/04:00pm 14.5 WSW 13 19 1015.2 - 0.0 - - - - - - -
24/03:30pm 15.0 WSW 12 19 1014.8 - 0.0 - - - - - - -
24/03:00pm 15.4 WSW 11 18 1014.4 - 0.0 - - - - - - -
24/02:30pm 15.7 WSW 12 18 1014.2 - 0.0 - - - - - - -
24/02:00pm 15.5 WSW 11 18 1014.3 - 0.0 - - - - - - -
24/01:30pm 15.3 WSW 12 17 1014.2 - 0.0 - - - - - - -
24/01:00pm 15.9 WSW 12 17 1014.4 - 0.0 - - - - - - -
24/12:30pm 15.8 WSW 12 17 1014.4 - 0.0 - - - - - - -
24/12:00pm 15.2 WSW 12 17 1014.9 - 0.0 - - - - - - -
24/11:30am 16.7 W 9 15 1015.3 - 0.0 - - - - - - -
24/11:00am 15.2 WSW 9 14 1015.6 - 0.0 - - - - - - -
24/10:30am 14.9 W 10 15 1016.0 - 0.0 - - - - - - -
24/10:00am 15.7 W 10 14 1016.2 - 0.0 - - - - - - -
24/09:30am 14.2 W 9 15 1016.3 - 0.0 - - - - - - -
24/09:00am 12.9 W 11 16 1016.2 - 0.2 - - - - - - -
24/08:30am 11.6 W 9 13 1016.0 - 0.2 - - - - - - -
24/08:00am 11.2 WNW 10 16 1015.8 - 0.2 - - - - - - -
24/07:30am 10.3 WNW 8 11 1015.4 - 0.2 - - - - - - -
24/07:00am 9.7 NW 8 13 1015.1 - 0.2 - - - - - - -
24/06:30am 9.4 NW 7 11 1014.8 - 0.2 - - - - - - -
24/06:00am 9.8 NNW 7 10 1014.9 - 0.2 - - - - - - -
24/05:30am 9.5 NW 7 11 1014.8 - 0.2 - - - - - - -
24/05:00am 8.8 NW 8 12 1014.7 - 0.2 - - - - - - -
24/04:30am 8.3 NW 8 10 1014.6 - 0.0 - - - - - - -
24/04:00am 8.5 NW 8 10 1014.5 - 0.0 - - - - - - -
24/03:30am 8.7 NW 7 10 1014.6 - 0.0 - - - - - - -
24/03:00am 8.7 NW 7 10 1014.6 - 0.0 - - - - - - -
24/02:30am 8.9 NW 7 9 1014.7 - 0.0 - - - - - - -
24/02:00am 9.0 NW 8 10 1014.8 - 0.0 - - - - - - -
24/01:30am 9.2 NW 8 11 1015.0 - 0.0 - - - - - - -
24/01:00am 8.8 NW 8 10 1015.0 - 0.0 - - - - - - -
24/12:30am 8.6 NW 8 10 1015.0 - 0.0 - - - - - - -
24/12:00am 8.7 NW 8 11 1015.1 - 0.0 - - - - - - -
 
Date/Time
WST
Temp

°C
Wind Pressure Rain
since 9am
mm
Weather Cloud Vis
km
Sea
Height
m
Swell
Dir
 
Speed
knots
Gust
knots
hPa Trend Height
m
Period
s
Dir
23/11:30pm 8.9 NW 8 10 1015.2 - 0.0 - - - - - - -
23/11:00pm 9.1 NW 8 11 1015.3 - 0.0 - - - - - - -
23/10:30pm 9.1 NW 8 10 1015.3 - 0.0 - - - - - - -
23/10:00pm 9.2 NW 8 10 1015.6 - 0.0 - - - - - - -
23/09:30pm 9.3 NW 8 10 1015.6 - 0.0 - - - - - - -
23/09:00pm 9.9 WNW 8 10 1015.5 - 0.0 - - - - - - -
23/08:30pm 10.7 W 7 9 1015.4 - 0.0 - - - - - - -
23/08:00pm 11.1 WNW 7 10 1015.4 - 0.0 - - - - - - -
23/07:30pm 11.3 WNW 6 8 1015.3 - 0.0 - - - - - - -
23/07:00pm 12.4 W 6 7 1015.1 - 0.0 - - - - - - -
23/06:30pm 13.3 W 7 11 1015.0 - 0.0 - - - - - - -
23/06:00pm 13.3 W 6 9 1014.6 - 0.0 - - - - - - -
23/05:30pm 13.8 W 7 10 1014.7 - 0.0 - - - - - - -
23/05:00pm 14.0 W 7 11 1014.4 - 0.0 - - - - - - -
23/04:30pm 14.7 W 9 12 1014.1 - 0.0 - - - - - - -
23/04:00pm 15.5 W 10 14 1013.8 - 0.0 - - - - - - -
23/03:30pm 16.4 WSW 10 14 1013.3 - 0.0 - - - - - - -
23/03:00pm 16.7 WSW 10 14 1013.0 - 0.0 - - - - - - -
23/02:30pm 17.0 WSW 10 14 1012.8 - 0.0 - - - - - - -
23/02:00pm 17.2 WSW 10 14 1012.5 - 0.0 - - - - - - -
23/01:30pm 17.2 WSW 11 16 1012.0 - 0.0 - - - - - - -
23/01:00pm 17.1 WSW 10 15 1012.0 - 0.0 - - - - - - -
23/12:30pm 17.1 WSW 11 16 1012.0 - 0.0 - - - - - - -
23/12:00pm 16.8 WSW 14 19 1012.1 - 0.0 - - - - - - -
23/11:30am 16.7 WSW 11 17 1012.4 - 0.0 - - - - - - -
23/11:00am 16.3 WSW 10 15 1012.5 - 0.0 - - - - - - -
23/10:30am 15.7 WSW 10 15 1012.9 - 0.0 - - - - - - -
23/10:00am 14.9 WSW 10 14 1013.2 - 0.0 - - - - - - -
23/09:30am 15.0 WSW 10 15 1013.1 - 0.0 - - - - - - -
23/09:00am 14.3 W 7 10 1013.0 - 18.2 - - - - - - -
23/08:30am 13.3 WNW 7 10 1012.7 - 18.2 - - - - - - -
23/08:00am 12.4 WNW 6 8 1012.3 - 18.2 - - - - - - -
23/07:30am 11.7 WNW 7 10 1012.1 - 18.2 - - - - - - -
23/07:00am 11.6 WNW 7 9 1011.6 - 18.2 - - - - - - -
23/06:30am 11.7 W 7 11 1011.3 - 18.2 - - - - - - -
23/06:00am 12.2 W 9 13 1010.8 - 17.8 - - - - - - -
23/05:30am 12.2 WSW 14 22 1010.3 - 17.2 - - - - - - -
23/05:00am 12.4 SW 14 19 1010.0 - 15.4 - - - - - - -
23/04:30am 11.7 SW 11 16 1009.6 - 15.0 - - - - - - -
23/04:00am 11.1 WNW 7 9 1009.6 - 12.8 - - - - - - -
23/03:30am 11.1 W 7 10 1009.5 - 10.0 - - - - - - -
23/03:00am 11.1 W 8 10 1009.6 - 7.6 - - - - - - -
23/02:30am 11.1 W 8 11 1009.7 - 6.0 - - - - - - -
23/02:00am 11.8 W 7 9 1009.7 - 5.6 - - - - - - -
23/01:30am 11.6 SW 8 10 1009.8 - 5.6 - - - - - - -
23/01:00am 12.0 SW 10 16 1010.0 - 4.6 - - - - - - -
23/12:30am 12.3 S 10 11 1010.0 - 4.2 - - - - - - -
23/12:00am 12.1 CALM 0 3 1010.2 - 3.6 - - - - - - -

Other Formats:

Comma delimited format used in spreadsheet applications
http://www.bom.gov.au/fwo/IDW60701/IDW60701.94644.axf

JavaScript Object Notation format (JSON) in row-major order
http://www.bom.gov.au/fwo/IDW60701/IDW60701.94644.json